Liberty, North Carolina
Current Conditions -  °F | °C
As of 6:15 AM on Thursday 23 Oct 2014 (Local Time) from K5W8 Reporting Station
Clear Clear  
Wind Chill: 35°   Ceiling: Unl
Heat Index: 35°   Visibility: 10mi
Dew Point: 34°   Wind: 0mph
Humidity: 98%   Direction: NA
Pressure: 30.03"   Gusts: NA
Location:  35.85°N, 79.57°W
Report Text: K5W8 231015Z AUTO 00000KT 10SM CLR 01/01 A3003 RMK AO2 T00140011
Loading
Personal Weather Stations






























Interactive Weather Map
Tropical Storm Tracking
New forecast layout! Learn more

10-Day Weather Forecast

Advertisements
Track Severe Weather on mobile